Time;durP1;ratioP1;P1;durP2;ratioP2;P2;SDS_P1;SDS_P2;PMS_P1;PMS_P2;Temp;Humidity;BMP_temperature;BMP_pressure;BME280_temperature;BME280_humidity;BME280_pressure;Samples;Min_cycle;Max_cycle;Signal;HPM_P1;HPM_P2
2022/12/24 00:00:46;;;;;;;4.68;3.67;;;10.50;99.90;;;;;;5015856;28;20049;-51
2022/12/24 00:03:33;;;;;;;6.50;3.55;;;10.50;99.90;;;;;;5014299;28;20112;-50
2022/12/24 00:06:22;;;;;;;4.75;3.70;;;10.50;99.90;;;;;;5003406;28;20105;-52
2022/12/24 00:09:08;;;;;;;4.60;3.47;;;10.50;99.90;;;;;;5009842;28;20109;-48
2022/12/24 00:11:54;;;;;;;3.92;3.10;;;10.50;99.90;;;;;;5008330;28;20018;-57
2022/12/24 00:14:40;;;;;;;3.47;3.00;;;10.50;99.90;;;;;;5020693;28;20050;-53
2022/12/24 00:17:26;;;;;;;3.13;2.60;;;10.50;99.90;;;;;;5022954;28;20116;-45
2022/12/24 00:20:12;;;;;;;2.92;2.60;;;10.50;99.90;;;;;;5010729;28;20109;-51
2022/12/24 00:22:59;;;;;;;4.60;2.70;;;10.50;99.90;;;;;;5012668;28;20041;-51
2022/12/24 00:25:46;;;;;;;3.72;2.70;;;10.50;99.90;;;;;;5012709;28;20125;-57
2022/12/24 00:28:32;;;;;;;5.47;2.67;;;10.50;99.90;;;;;;5013160;28;20101;-51
2022/12/24 00:31:18;;;;;;;4.75;3.28;;;10.50;99.90;;;;;;5013083;28;20467;-53
2022/12/24 00:34:04;;;;;;;4.53;2.30;;;10.40;99.90;;;;;;5012713;28;20029;-55
2022/12/24 00:36:50;;;;;;;3.38;2.80;;;10.40;99.90;;;;;;5012366;28;20029;-51
2022/12/24 00:39:36;;;;;;;4.45;2.70;;;10.50;99.90;;;;;;5013433;28;20061;-50
2022/12/24 00:42:22;;;;;;;4.82;3.20;;;10.40;99.90;;;;;;5011388;28;20022;-50
2022/12/24 00:45:09;;;;;;;4.07;2.90;;;10.40;99.90;;;;;;5011302;28;20483;-50
2022/12/24 00:47:55;;;;;;;4.75;2.80;;;10.40;99.90;;;;;;5012159;28;20057;-47
2022/12/24 00:50:41;;;;;;;4.28;2.95;;;10.30;99.90;;;;;;5012013;28;20022;-52
2022/12/24 00:53:27;;;;;;;5.28;3.42;;;10.40;99.90;;;;;;4995080;28;20035;-47
2022/12/24 00:56:13;;;;;;;4.40;2.90;;;10.30;99.90;;;;;;4992651;28;20156;-48
2022/12/24 00:58:59;;;;;;;5.88;3.40;;;10.30;99.90;;;;;;4992863;28;20129;-48
2022/12/24 01:01:45;;;;;;;5.00;3.65;;;10.30;99.90;;;;;;4992263;28;20030;-54
2022/12/24 01:07:37;;;;;;;8.10;4.78;;;10.30;99.90;;;;;;4991922;28;20042;-49
2022/12/24 01:10:23;;;;;;;12.20;4.63;;;10.30;99.90;;;;;;4991633;28;20022;-51
2022/12/24 01:13:09;;;;;;;8.75;4.80;;;10.30;99.90;;;;;;4992182;28;20058;-51
2022/12/24 01:15:55;;;;;;;7.70;4.03;;;10.20;99.90;;;;;;5028707;28;20414;-48
2022/12/24 01:18:41;;;;;;;10.27;4.10;;;10.20;99.90;;;;;;4992829;28;20026;-54
2022/12/24 01:21:27;;;;;;;8.95;4.50;;;10.20;99.90;;;;;;4998403;28;20113;-49
2022/12/24 01:24:14;;;;;;;7.88;4.07;;;10.20;99.90;;;;;;5011879;28;20137;-51
2022/12/24 01:27:00;;;;;;;6.57;3.72;;;10.30;99.90;;;;;;5011251;28;20514;-50
2022/12/24 01:29:46;;;;;;;8.18;4.10;;;10.20;99.90;;;;;;5011918;28;20057;-48
2022/12/24 01:32:32;;;;;;;9.18;4.10;;;10.20;99.90;;;;;;5010518;28;20061;-47
2022/12/24 01:35:18;;;;;;;8.65;4.05;;;10.40;99.90;;;;;;5012185;28;20032;-49
2022/12/24 01:38:03;;;;;;;5.90;4.28;;;10.20;99.90;;;;;;5011553;28;20041;-53
2022/12/24 01:43:54;;;;;;;10.25;4.38;;;10.20;99.90;;;;;;5011079;28;20026;-46
2022/12/24 01:46:40;;;;;;;6.95;3.67;;;10.10;99.90;;;;;;4997441;28;20042;-51
2022/12/24 01:49:26;;;;;;;8.50;4.50;;;10.10;99.90;;;;;;5010679;28;20038;-48
2022/12/24 01:52:22;;;;;;;9.02;4.18;;;10.20;99.90;;;;;;5011078;28;20135;-47
2022/12/24 01:55:14;;;;;;;11.50;4.60;;;10.20;99.90;;;;;;5014069;28;20022;-53
2022/12/24 01:58:03;;;;;;;7.82;4.47;;;10.20;99.90;;;;;;5006560;28;20033;-50
2022/12/24 02:00:49;;;;;;;8.43;3.97;;;10.30;99.90;;;;;;5014883;28;20443;-48
2022/12/24 02:03:35;;;;;;;10.73;4.93;;;10.20;99.90;;;;;;5014975;28;20562;-47
2022/12/24 02:06:22;;;;;;;9.93;5.00;;;10.20;99.90;;;;;;5015392;28;20099;-51
2022/12/24 02:09:08;;;;;;;12.95;5.28;;;10.10;99.90;;;;;;5014559;28;20014;-51
2022/12/24 02:11:55;;;;;;;11.27;5.25;;;10.20;99.90;;;;;;5014378;28;20399;-50
2022/12/24 02:14:40;;;;;;;11.00;4.60;;;10.10;99.90;;;;;;5022668;28;20021;-50
2022/12/24 02:17:35;;;;;;;16.98;6.13;;;10.10;99.90;;;;;;5032242;28;20083;-50
2022/12/24 02:20:35;;;;;;;11.43;4.75;;;10.10;99.90;;;;;;5028278;28;20026;-49
2022/12/24 02:23:32;;;;;;;14.70;5.20;;;10.10;99.90;;;;;;5015529;28;20426;-52
2022/12/24 02:26:50;;;;;;;11.93;5.70;;;10.10;99.90;;;;;;5009816;28;20065;-54
2022/12/24 02:30:02;;;;;;;14.43;5.07;;;10.20;99.90;;;;;;5005376;28;20045;-54
2022/12/24 02:33:02;;;;;;;14.00;5.72;;;10.20;99.90;;;;;;5014291;28;20506;-48
2022/12/24 02:36:05;;;;;;;14.50;4.93;;;10.10;99.90;;;;;;5012638;28;20029;-50
2022/12/24 02:39:08;;;;;;;15.40;4.70;;;10.00;99.90;;;;;;5013662;28;20499;-48
2022/12/24 02:42:06;;;;;;;12.43;5.95;;;10.00;99.90;;;;;;5013000;28;20030;-48
2022/12/24 02:45:00;;;;;;;13.88;5.43;;;10.00;99.90;;;;;;4999778;28;20026;-49
2022/12/24 02:47:49;;;;;;;16.33;4.95;;;10.20;99.90;;;;;;5014146;28;20513;-46
2022/12/24 02:50:35;;;;;;;14.65;4.88;;;10.20;99.90;;;;;;5013417;28;20033;-55
2022/12/24 02:53:21;;;;;;;9.38;4.53;;;10.10;99.90;;;;;;4993712;28;20109;-47
2022/12/24 02:56:26;;;;;;;8.25;4.20;;;10.10;99.90;;;;;;4994520;28;20039;-48
2022/12/24 02:59:33;;;;;;;16.67;4.25;;;10.30;99.90;;;;;;4994223;28;20053;-49
2022/12/24 03:02:43;;;;;;;11.77;4.47;;;10.20;99.90;;;;;;4994474;28;20022;-53
2022/12/24 03:05:56;;;;;;;12.75;4.47;;;10.20;99.90;;;;;;4993905;28;20027;-47
2022/12/24 03:09:01;;;;;;;8.52;3.97;;;10.20;99.90;;;;;;4991879;28;20483;-47
2022/12/24 03:11:54;;;;;;;10.77;4.23;;;10.30;99.90;;;;;;4992380;28;20030;-48
2022/12/24 03:14:41;;;;;;;11.88;3.90;;;10.10;99.90;;;;;;5000395;28;20038;-56
2022/12/24 03:17:27;;;;;;;10.38;4.00;;;10.20;99.90;;;;;;5013667;28;20162;-49
2022/12/24 03:20:19;;;;;;;8.20;4.25;;;10.20;99.90;;;;;;5022311;28;20056;-51
2022/12/24 03:23:06;;;;;;;10.25;4.05;;;10.20;99.90;;;;;;5014929;28;20033;-48
2022/12/24 03:25:52;;;;;;;11.73;4.25;;;10.20;99.90;;;;;;5017023;28;20403;-56
2022/12/24 03:28:40;;;;;;;7.88;3.47;;;10.30;99.90;;;;;;5016301;28;20392;-57
2022/12/24 03:31:26;;;;;;;7.75;3.35;;;10.40;99.90;;;;;;5012457;28;20022;-53
2022/12/24 03:34:13;;;;;;;9.80;3.67;;;10.50;99.90;;;;;;5013463;28;20030;-56
2022/12/24 03:36:59;;;;;;;5.80;3.78;;;10.50;99.90;;;;;;5009865;28;20117;-51
2022/12/24 03:39:45;;;;;;;6.95;3.80;;;10.50;99.90;;;;;;5011956;28;20022;-52
2022/12/24 03:42:31;;;;;;;10.85;3.80;;;10.50;99.90;;;;;;5005595;28;20034;-50
2022/12/24 03:45:17;;;;;;;11.75;4.25;;;10.50;99.90;;;;;;5001170;28;20022;-52
2022/12/24 03:48:03;;;;;;;12.20;3.72;;;10.50;99.90;;;;;;5008953;28;20053;-47
2022/12/24 03:50:49;;;;;;;13.30;3.90;;;10.40;99.90;;;;;;5010203;28;20033;-48
2022/12/24 03:53:35;;;;;;;6.75;3.40;;;10.50;99.90;;;;;;4997725;28;20048;-48
2022/12/24 03:56:22;;;;;;;11.93;4.18;;;10.60;99.90;;;;;;5009606;28;20029;-51
2022/12/24 03:59:08;;;;;;;11.27;3.60;;;10.50;99.90;;;;;;5011349;28;20052;-47
2022/12/24 04:01:54;;;;;;;10.07;3.50;;;10.50;99.90;;;;;;5012359;28;20034;-52
2022/12/24 04:04:40;;;;;;;9.13;3.63;;;10.40;99.90;;;;;;5011480;28;20032;-47
2022/12/24 04:07:26;;;;;;;8.45;3.53;;;10.40;99.90;;;;;;5011255;28;20076;-46
2022/12/24 04:10:13;;;;;;;9.05;3.78;;;10.40;99.90;;;;;;5011157;28;20453;-48
2022/12/24 04:12:59;;;;;;;10.13;3.42;;;10.40;99.90;;;;;;5011602;28;20105;-54
2022/12/24 04:15:54;;;;;;;8.35;3.53;;;10.50;99.90;;;;;;5028870;28;20596;-47
2022/12/24 04:18:41;;;;;;;5.90;3.00;;;10.50;99.90;;;;;;5012975;28;20030;-47
2022/12/24 04:21:27;;;;;;;10.68;3.22;;;10.60;99.90;;;;;;5012192;28;20037;-46
2022/12/24 04:24:13;;;;;;;6.97;3.42;;;10.50;99.90;;;;;;5012648;28;20033;-48
2022/12/24 04:26:59;;;;;;;7.50;3.83;;;10.50;99.90;;;;;;5015441;28;20576;-48
2022/12/24 04:29:44;;;;;;;9.93;3.72;;;10.50;99.90;;;;;;5016981;28;20128;-50
2022/12/24 04:32:30;;;;;;;12.75;4.88;;;10.40;99.90;;;;;;5015673;28;20032;-50
2022/12/24 04:35:16;;;;;;;7.20;3.80;;;10.40;99.90;;;;;;5014889;28;20026;-51
2022/12/24 04:38:02;;;;;;;8.40;3.95;;;10.20;99.90;;;;;;5015188;28;20026;-50
2022/12/24 04:40:56;;;;;;;8.30;3.75;;;10.20;99.90;;;;;;5016095;28;20029;-53
2022/12/24 04:43:42;;;;;;;11.88;3.58;;;10.30;99.90;;;;;;5016937;28;20026;-46
2022/12/24 04:46:32;;;;;;;9.95;3.55;;;10.40;99.90;;;;;;5015982;28;20033;-53
2022/12/24 04:49:18;;;;;;;6.95;3.60;;;10.40;99.90;;;;;;5012356;28;20038;-47
2022/12/24 04:52:04;;;;;;;9.35;3.83;;;10.50;99.90;;;;;;5004330;28;20034;-50
2022/12/24 04:54:50;;;;;;;7.70;3.47;;;10.60;99.90;;;;;;5012644;28;20022;-45
2022/12/24 04:57:36;;;;;;;5.82;2.85;;;10.60;99.90;;;;;;4993156;28;20093;-48
2022/12/24 05:00:22;;;;;;;9.05;3.60;;;10.60;99.90;;;;;;5019967;28;20064;-47
2022/12/24 05:03:08;;;;;;;5.90;3.40;;;10.50;99.90;;;;;;5032405;28;20026;-47
2022/12/24 05:06:20;;;;;;;7.53;3.38;;;10.50;99.90;;;;;;5030758;28;20057;-46
2022/12/24 05:09:06;;;;;;;9.15;3.60;;;10.50;99.90;;;;;;5030513;28;20100;-49
2022/12/24 05:11:52;;;;;;;10.20;3.72;;;10.30;99.90;;;;;;5031355;28;20040;-47
2022/12/24 05:14:38;;;;;;;6.63;3.30;;;10.30;99.90;;;;;;5030913;28;20493;-48
2022/12/24 05:17:24;;;;;;;8.48;3.90;;;10.30;99.90;;;;;;5032080;28;20080;-45
2022/12/24 05:20:10;;;;;;;4.93;3.20;;;10.30;99.90;;;;;;5032077;28;20548;-49
2022/12/24 05:29:11;;;;;;;9.30;3.97;;;10.30;99.90;;;;;;5019440;28;20465;-56
2022/12/24 05:31:57;;;;;;;10.15;4.25;;;10.20;99.90;;;;;;5015121;28;20406;-46
2022/12/24 05:34:43;;;;;;;8.55;3.53;;;10.20;99.90;;;;;;5015918;28;20029;-50
2022/12/24 05:37:28;;;;;;;6.32;3.90;;;10.20;99.90;;;;;;5014327;28;20029;-47
2022/12/24 05:40:14;;;;;;;8.82;3.95;;;10.20;99.90;;;;;;5015442;28;20030;-47
2022/12/24 05:43:00;;;;;;;11.43;4.55;;;10.10;99.90;;;;;;5015525;28;20033;-47
2022/12/24 05:45:47;;;;;;;10.32;4.07;;;10.10;99.90;;;;;;5014784;28;20033;-52
2022/12/24 05:48:33;;;;;;;10.70;3.70;;;10.10;99.90;;;;;;5015497;28;20026;-50
2022/12/24 05:51:21;;;;;;;5.97;3.75;;;10.10;99.90;;;;;;5014223;28;20437;-48
2022/12/24 05:54:07;;;;;;;8.35;4.28;;;10.10;99.90;;;;;;5015364;28;20030;-46
2022/12/24 05:56:53;;;;;;;9.85;4.00;;;10.00;99.90;;;;;;5004641;28;20039;-50
2022/12/24 05:59:39;;;;;;;10.65;4.60;;;9.90;99.90;;;;;;4994863;28;20037;-52
2022/12/24 06:02:25;;;;;;;8.45;3.65;;;9.80;99.90;;;;;;4983146;28;20038;-48
2022/12/24 06:05:11;;;;;;;9.68;4.03;;;9.80;99.90;;;;;;5022704;28;20041;-52
2022/12/24 06:07:57;;;;;;;10.10;4.95;;;9.80;99.90;;;;;;5032085;28;20171;-55
2022/12/24 06:10:43;;;;;;;8.88;3.63;;;9.80;99.90;;;;;;5014991;28;20069;-54
2022/12/24 06:13:29;;;;;;;7.43;3.40;;;9.90;99.90;;;;;;5014762;28;20018;-46
2022/12/24 06:16:18;;;;;;;12.30;4.35;;;10.00;99.90;;;;;;4995275;28;20033;-52
2022/12/24 06:19:04;;;;;;;9.52;4.10;;;10.00;99.90;;;;;;4995278;28;20518;-47
2022/12/24 06:21:49;;;;;;;16.65;6.15;;;10.00;99.90;;;;;;4994034;28;20518;-46
2022/12/24 06:24:35;;;;;;;10.40;4.45;;;9.90;99.90;;;;;;4993241;28;20127;-47
2022/12/24 06:27:21;;;;;;;9.30;3.80;;;9.80;99.90;;;;;;4995244;28;20023;-50
2022/12/24 06:30:08;;;;;;;9.40;4.00;;;9.80;99.90;;;;;;4994631;28;20069;-52
2022/12/24 06:32:54;;;;;;;9.43;3.90;;;9.70;99.90;;;;;;4994578;28;20061;-46
2022/12/24 06:35:40;;;;;;;13.15;4.85;;;9.70;99.90;;;;;;5025067;28;20038;-48
2022/12/24 06:38:28;;;;;;;10.75;4.20;;;9.60;99.90;;;;;;5026760;28;20501;-51
2022/12/24 06:41:16;;;;;;;8.07;4.30;;;9.60;99.90;;;;;;5021358;28;20426;-48
2022/12/24 06:44:01;;;;;;;9.23;4.38;;;9.50;99.90;;;;;;5033801;28;20017;-54
2022/12/24 06:46:47;;;;;;;11.27;3.92;;;9.50;99.90;;;;;;5032328;28;20128;-50
2022/12/24 06:49:33;;;;;;;11.30;4.13;;;9.50;99.90;;;;;;5017886;28;20041;-45
2022/12/24 06:52:19;;;;;;;13.40;4.65;;;9.50;99.90;;;;;;5021430;28;20065;-46
2022/12/24 06:55:06;;;;;;;10.02;4.28;;;9.40;99.90;;;;;;5014626;28;20072;-48
2022/12/24 06:57:52;;;;;;;14.40;4.43;;;9.40;99.90;;;;;;5012623;28;20137;-54
2022/12/24 07:00:38;;;;;;;13.20;5.18;;;9.20;99.90;;;;;;5014315;28;20022;-48
2022/12/24 07:03:24;;;;;;;12.73;4.60;;;9.20;99.90;;;;;;5014735;28;20110;-46
2022/12/24 07:06:27;;;;;;;12.43;4.68;;;9.20;99.90;;;;;;5013691;28;20026;-46
2022/12/24 07:09:13;;;;;;;13.65;4.80;;;9.30;99.90;;;;;;5010536;28;20050;-48
2022/12/24 07:11:59;;;;;;;13.00;4.25;;;9.20;99.90;;;;;;5013238;28;20026;-46
2022/12/24 07:14:45;;;;;;;10.88;4.57;;;9.10;99.90;;;;;;5014309;28;20072;-50
2022/12/24 07:17:31;;;;;;;17.27;5.53;;;9.10;99.90;;;;;;5031056;28;20025;-53
2022/12/24 07:20:17;;;;;;;16.52;5.82;;;9.10;99.90;;;;;;5032156;28;20072;-52
2022/12/24 07:23:03;;;;;;;14.32;4.30;;;9.10;99.90;;;;;;5033692;28;20397;-53
2022/12/24 07:25:49;;;;;;;11.48;4.68;;;9.00;99.90;;;;;;5018316;28;20045;-53
2022/12/24 07:28:35;;;;;;;14.98;5.40;;;9.00;99.90;;;;;;5033341;28;20032;-53
2022/12/24 07:31:21;;;;;;;17.40;5.78;;;9.00;99.90;;;;;;5009364;28;20034;-51
2022/12/24 07:34:07;;;;;;;13.38;4.78;;;9.00;99.90;;;;;;5016735;28;20507;-46
2022/12/24 07:36:53;;;;;;;16.63;4.75;;;9.00;99.90;;;;;;5013855;28;20034;-47
2022/12/24 07:39:39;;;;;;;12.02;4.85;;;8.90;99.90;;;;;;5012843;28;20037;-45
2022/12/24 07:42:25;;;;;;;16.75;4.75;;;8.90;99.90;;;;;;5030879;28;20021;-47
2022/12/24 07:45:11;;;;;;;16.40;5.07;;;8.90;99.90;;;;;;5032860;28;20036;-46
2022/12/24 07:47:57;;;;;;;13.27;5.05;;;8.90;99.90;;;;;;5032948;28;20460;-50
2022/12/24 07:50:43;;;;;;;13.13;4.30;;;8.90;99.90;;;;;;5022624;28;20470;-51
2022/12/24 07:53:29;;;;;;;14.43;5.00;;;9.00;99.90;;;;;;5019668;28;20030;-47
2022/12/24 07:56:16;;;;;;;11.55;4.38;;;9.00;99.90;;;;;;5012811;28;20034;-47
2022/12/24 07:59:02;;;;;;;15.63;4.80;;;9.00;99.90;;;;;;5012835;28;20061;-51
2022/12/24 08:01:48;;;;;;;15.18;4.65;;;9.00;99.90;;;;;;5011742;28;20410;-56
2022/12/24 08:04:35;;;;;;;12.13;4.72;;;9.00;99.90;;;;;;5013501;28;20031;-47
2022/12/24 08:07:21;;;;;;;14.15;4.35;;;9.00;99.90;;;;;;5014481;28;20532;-48
2022/12/24 08:10:07;;;;;;;12.85;4.35;;;9.00;99.90;;;;;;5019483;28;20053;-49
2022/12/24 08:12:53;;;;;;;15.18;4.80;;;9.00;99.90;;;;;;5028346;28;20030;-45
2022/12/24 08:15:39;;;;;;;10.40;4.68;;;9.00;99.90;;;;;;5028511;28;20390;-49
2022/12/24 08:18:25;;;;;;;14.55;5.18;;;9.10;99.90;;;;;;5027550;28;20501;-50
2022/12/24 08:21:11;;;;;;;14.48;4.30;;;9.00;99.90;;;;;;5032129;28;20068;-49
2022/12/24 08:23:57;;;;;;;18.48;5.32;;;9.10;99.90;;;;;;5007728;28;20072;-47
2022/12/24 08:26:43;;;;;;;14.55;4.15;;;9.20;99.90;;;;;;5007345;28;20022;-53
2022/12/24 08:29:29;;;;;;;12.30;4.38;;;9.10;99.90;;;;;;5020542;28;20572;-52
2022/12/24 08:32:15;;;;;;;11.18;4.78;;;9.00;99.90;;;;;;5018015;28;20415;-57
2022/12/24 08:35:01;;;;;;;14.25;5.32;;;9.00;99.90;;;;;;5010375;28;20052;-56
2022/12/24 08:37:47;;;;;;;13.90;4.80;;;9.00;99.90;;;;;;5010228;28;20101;-52
2022/12/24 08:40:33;;;;;;;11.32;4.18;;;9.10;99.90;;;;;;5018317;28;20045;-50
2022/12/24 08:43:19;;;;;;;11.25;4.75;;;9.20;99.90;;;;;;5012104;28;20033;-50
2022/12/24 08:46:05;;;;;;;14.35;5.32;;;9.20;99.90;;;;;;5011241;28;20108;-57
2022/12/24 08:48:51;;;;;;;15.57;4.57;;;9.10;99.90;;;;;;5009262;28;20030;-55
2022/12/24 08:51:37;;;;;;;16.17;5.32;;;9.20;99.90;;;;;;5009244;28;20025;-55
2022/12/24 08:54:24;;;;;;;12.20;4.65;;;9.20;99.90;;;;;;5011646;28;20378;-56
2022/12/24 08:57:10;;;;;;;13.43;4.93;;;9.30;99.90;;;;;;5008915;28;20383;-49
2022/12/24 08:59:56;;;;;;;15.45;4.55;;;9.40;99.90;;;;;;4995158;28;20447;-53
2022/12/24 09:02:42;;;;;;;11.00;4.90;;;9.50;99.90;;;;;;5012600;28;20026;-50
2022/12/24 09:05:28;;;;;;;18.05;4.82;;;9.50;99.90;;;;;;5015566;28;20030;-52
2022/12/24 09:08:14;;;;;;;15.20;4.80;;;9.50;99.90;;;;;;5012161;28;20026;-53
2022/12/24 09:11:09;;;;;;;16.20;5.28;;;9.50;99.90;;;;;;5014830;28;20099;-51
2022/12/24 09:13:55;;;;;;;16.23;4.93;;;9.50;99.90;;;;;;5016727;28;20025;-51
2022/12/24 09:16:41;;;;;;;17.17;4.65;;;9.50;99.90;;;;;;5012947;28;20061;-50
2022/12/24 09:19:27;;;;;;;18.98;7.18;;;9.50;99.90;;;;;;5014735;28;20062;-52
2022/12/24 09:22:13;;;;;;;13.90;4.47;;;9.50;99.90;;;;;;5013273;28;20053;-48
2022/12/24 09:24:59;;;;;;;16.88;5.78;;;9.60;99.90;;;;;;5014203;28;20096;-53
2022/12/24 09:27:45;;;;;;;13.52;5.03;;;9.60;99.90;;;;;;5000991;28;20026;-48
2022/12/24 09:30:31;;;;;;;21.05;5.72;;;9.60;99.90;;;;;;5012927;28;20507;-47
2022/12/24 09:33:17;;;;;;;15.35;5.78;;;9.70;99.90;;;;;;5014093;28;20413;-56
2022/12/24 09:36:04;;;;;;;20.85;5.70;;;9.80;99.90;;;;;;5016950;28;20053;-57
2022/12/24 09:38:50;;;;;;;12.85;5.00;;;9.80;99.90;;;;;;4999001;28;20022;-50
2022/12/24 09:41:58;;;;;;;12.82;4.60;;;9.80;99.90;;;;;;5016759;28;20418;-54
2022/12/24 09:44:57;;;;;;;14.80;5.03;;;9.80;99.90;;;;;;5016400;28;20030;-53
2022/12/24 09:48:11;;;;;;;17.27;4.95;;;9.80;99.90;;;;;;5020396;28;20030;-55
2022/12/24 09:51:44;;;;;;;11.70;4.65;;;9.80;99.90;;;;;;5012571;28;20026;-53
2022/12/24 09:54:35;;;;;;;12.45;4.45;;;9.90;99.90;;;;;;4954075;28;20031;-50
2022/12/24 09:57:42;;;;;;;19.88;5.28;;;10.00;99.90;;;;;;5013310;28;20021;-48
2022/12/24 10:00:34;;;;;;;16.70;4.93;;;10.10;99.90;;;;;;5009896;28;20034;-50
2022/12/24 10:03:20;;;;;;;17.33;5.47;;;10.10;99.90;;;;;;4995862;28;20026;-49
2022/12/24 10:06:22;;;;;;;14.80;4.72;;;10.20;99.90;;;;;;4994614;28;20042;-48
2022/12/24 10:09:44;;;;;;;15.23;4.57;;;10.20;99.90;;;;;;5006164;28;20030;-52
2022/12/24 10:12:48;;;;;;;9.73;4.13;;;10.40;99.90;;;;;;4952500;28;20027;-54
2022/12/24 10:15:55;;;;;;;12.43;4.20;;;10.40;99.90;;;;;;5029996;28;20029;-54
2022/12/24 10:18:53;;;;;;;17.38;4.88;;;10.40;99.90;;;;;;5033187;28;20512;-46
2022/12/24 10:21:52;;;;;;;13.23;4.90;;;10.40;99.90;;;;;;5034123;28;20026;-48
2022/12/24 10:24:53;;;;;;;9.65;3.90;;;10.30;99.90;;;;;;5033011;28;20112;-52
2022/12/24 10:27:39;;;;;;;11.63;4.03;;;10.40;99.90;;;;;;5033189;28;20029;-51
2022/12/24 10:30:25;;;;;;;15.07;3.80;;;10.30;99.90;;;;;;5032824;28;20036;-48
2022/12/24 10:33:37;;;;;;;12.80;4.38;;;10.30;99.90;;;;;;5033632;28;20057;-53
2022/12/24 10:36:29;;;;;;;10.18;4.38;;;10.40;99.90;;;;;;5009319;28;20027;-51
2022/12/24 10:39:21;;;;;;;15.50;4.07;;;10.40;99.90;;;;;;5013610;28;20264;-52
2022/12/24 10:42:09;;;;;;;13.48;4.57;;;10.50;99.90;;;;;;5014577;28;20030;-50
2022/12/24 10:45:01;;;;;;;9.23;4.07;;;10.50;99.90;;;;;;5012387;28;20030;-51
2022/12/24 10:47:53;;;;;;;10.18;4.30;;;10.50;99.90;;;;;;5013612;28;20047;-50
2022/12/24 10:50:55;;;;;;;8.77;3.90;;;10.60;99.90;;;;;;5011923;28;20490;-49
2022/12/24 10:54:16;;;;;;;9.10;3.53;;;10.60;99.90;;;;;;5081006;28;21055;-55
2022/12/24 10:57:03;;;;;;;10.00;3.65;;;10.70;99.90;;;;;;5062905;28;20033;-47
2022/12/24 10:59:53;;;;;;;9.80;3.75;;;10.70;99.90;;;;;;5061295;28;20029;-52
2022/12/24 11:02:39;;;;;;;12.95;3.58;;;10.70;99.90;;;;;;5058367;28;20024;-52
2022/12/24 11:05:36;;;;;;;9.32;4.15;;;10.70;99.90;;;;;;5056738;28;20055;-57
2022/12/24 11:08:24;;;;;;;12.65;3.53;;;10.80;99.90;;;;;;5050467;28;20029;-53
2022/12/24 11:11:19;;;;;;;13.75;3.42;;;10.80;99.90;;;;;;5056546;28;20017;-52
2022/12/24 11:14:05;;;;;;;8.70;3.90;;;10.70;99.90;;;;;;5056676;28;20037;-52
2022/12/24 11:16:54;;;;;;;7.70;3.50;;;10.90;99.90;;;;;;5031752;28;20026;-51
2022/12/24 11:19:45;;;;;;;10.25;3.42;;;11.00;99.90;;;;;;5057598;28;20032;-57
2022/12/24 11:22:32;;;;;;;8.57;3.72;;;11.10;99.90;;;;;;5055668;28;20060;-52
2022/12/24 11:25:27;;;;;;;6.70;3.22;;;11.10;99.90;;;;;;5057360;28;20029;-60
2022/12/24 11:28:26;;;;;;;11.18;3.78;;;11.20;99.90;;;;;;5059348;28;20174;-49
2022/12/24 11:31:19;;;;;;;10.35;3.38;;;11.20;99.90;;;;;;5060290;28;20025;-54
2022/12/24 11:34:27;;;;;;;8.32;3.30;;;11.20;99.90;;;;;;5056733;28;20494;-52
2022/12/24 11:37:31;;;;;;;7.32;3.17;;;11.20;99.90;;;;;;5058840;28;20044;-49
2022/12/24 11:40:22;;;;;;;7.38;3.38;;;11.10;99.90;;;;;;5056483;28;20021;-54
2022/12/24 11:43:43;;;;;;;10.05;3.65;;;11.20;99.90;;;;;;5057624;28;20032;-56
2022/12/24 11:46:42;;;;;;;9.50;3.30;;;11.20;99.90;;;;;;5058080;28;20048;-57
2022/12/24 11:49:30;;;;;;;12.93;4.07;;;11.20;99.90;;;;;;5058404;28;20071;-49
2022/12/24 11:52:21;;;;;;;7.50;3.38;;;11.20;99.90;;;;;;5055714;28;20029;-49
2022/12/24 11:55:32;;;;;;;9.25;3.42;;;11.20;99.90;;;;;;5052885;28;20022;-51
2022/12/24 11:58:31;;;;;;;9.10;4.00;;;11.20;99.90;;;;;;5047922;28;20728;-48
2022/12/24 12:01:36;;;;;;;10.32;3.78;;;11.30;99.90;;;;;;5047586;28;20067;-58
2022/12/24 12:04:32;;;;;;;10.32;4.25;;;11.40;99.90;;;;;;5039979;28;20063;-61
2022/12/24 12:07:24;;;;;;;13.85;3.50;;;11.40;99.90;;;;;;5034992;28;20026;-60
2022/12/24 12:10:18;;;;;;;9.27;3.70;;;11.40;99.90;;;;;;5033804;28;20040;-60
2022/12/24 12:13:10;;;;;;;8.82;3.90;;;11.30;99.90;;;;;;5026201;28;20085;-60
2022/12/24 12:16:04;;;;;;;11.10;4.28;;;11.40;99.90;;;;;;5034810;28;20108;-61
2022/12/24 12:18:58;;;;;;;9.90;3.43;;;11.50;99.90;;;;;;5040717;28;20051;-60
2022/12/24 12:21:46;;;;;;;13.25;4.60;;;11.50;99.90;;;;;;5043534;28;20256;-62
2022/12/24 12:24:37;;;;;;;11.07;4.55;;;11.60;99.90;;;;;;5041978;28;20029;-60
2022/12/24 12:27:36;;;;;;;9.63;3.63;;;11.60;99.90;;;;;;5049840;28;20021;-59
2022/12/24 12:30:24;;;;;;;14.73;4.65;;;11.50;99.90;;;;;;5046090;28;20034;-60
2022/12/24 12:33:24;;;;;;;8.30;3.78;;;11.50;99.90;;;;;;5046384;28;20045;-60
2022/12/24 12:36:13;;;;;;;11.48;4.30;;;11.50;99.90;;;;;;5045000;28;20448;-59
2022/12/24 12:38:59;;;;;;;7.18;3.90;;;11.60;99.90;;;;;;5043717;28;20014;-60
2022/12/24 12:41:55;;;;;;;11.43;4.18;;;11.50;99.90;;;;;;5042639;28;20056;-61
2022/12/24 12:44:56;;;;;;;10.90;4.07;;;11.60;99.90;;;;;;5037633;28;20025;-60
2022/12/24 12:48:01;;;;;;;9.75;3.55;;;11.40;99.90;;;;;;5033571;28;20076;-61
2022/12/24 12:51:27;;;;;;;9.32;3.95;;;11.40;99.90;;;;;;5032959;28;20087;-58
2022/12/24 12:54:29;;;;;;;10.35;4.47;;;11.40;99.90;;;;;;5051132;28;20033;-59
2022/12/24 12:57:18;;;;;;;13.98;5.72;;;11.30;99.90;;;;;;5034628;28;20080;-57
2022/12/24 13:00:11;;;;;;;11.52;4.13;;;11.20;99.90;;;;;;5031764;28;20079;-56
2022/12/24 13:03:12;;;;;;;11.65;3.88;;;11.20;99.90;;;;;;5026851;28;20029;-58
2022/12/24 13:06:22;;;;;;;12.68;4.75;;;11.00;99.90;;;;;;5025765;28;20033;-56
2022/12/24 13:09:23;;;;;;;10.55;4.00;;;10.70;99.90;;;;;;5032225;28;20739;-60
2022/12/24 13:12:31;;;;;;;9.25;4.30;;;10.60;99.90;;;;;;5032483;28;20064;-59
2022/12/24 13:15:32;;;;;;;12.02;4.30;;;10.50;99.90;;;;;;5031634;28;20014;-60
2022/12/24 13:18:51;;;;;;;8.93;3.58;;;10.50;99.90;;;;;;5032992;28;20032;-59
2022/12/24 13:21:43;;;;;;;9.52;4.30;;;10.40;99.90;;;;;;5032655;28;20017;-56
2022/12/24 13:24:31;;;;;;;12.77;4.50;;;10.30;99.90;;;;;;5033048;28;20065;-56
2022/12/24 13:27:29;;;;;;;13.75;5.53;;;10.20;99.90;;;;;;5033175;28;20025;-60
2022/12/24 13:30:35;;;;;;;13.90;4.93;;;10.20;99.90;;;;;;5032600;28;20025;-59
2022/12/24 13:33:36;;;;;;;9.65;4.63;;;10.30;99.90;;;;;;5032677;28;20056;-63
2022/12/24 13:36:22;;;;;;;15.65;4.72;;;10.40;99.90;;;;;;5032156;28;20408;-60
2022/12/24 13:39:18;;;;;;;10.13;4.30;;;10.50;99.90;;;;;;5032607;28;20025;-59
2022/12/24 13:42:05;;;;;;;12.07;4.68;;;10.70;99.90;;;;;;5032305;28;20068;-59
2022/12/24 13:45:43;;;;;;;8.73;4.43;;;10.80;99.90;;;;;;5032750;28;20033;-60
2022/12/24 13:48:33;;;;;;;10.65;5.07;;;10.80;99.90;;;;;;5024954;28;20038;-59
2022/12/24 13:51:24;;;;;;;12.25;4.65;;;10.80;99.90;;;;;;5033507;28;20038;-59
2022/12/24 13:54:13;;;;;;;13.50;4.60;;;10.70;99.90;;;;;;5032399;28;20037;-57
2022/12/24 13:57:00;;;;;;;12.57;4.32;;;10.70;99.90;;;;;;5032340;28;20378;-60
2022/12/24 13:59:46;;;;;;;11.18;5.15;;;10.70;99.90;;;;;;5032289;28;20030;-59
2022/12/24 14:02:37;;;;;;;9.50;4.38;;;10.80;99.90;;;;;;5031714;28;20029;-60
2022/12/24 14:05:41;;;;;;;12.27;5.25;;;10.80;99.90;;;;;;5032313;28;20021;-60
2022/12/24 14:08:39;;;;;;;11.98;5.05;;;10.90;99.90;;;;;;5032092;28;20440;-59
2022/12/24 14:11:25;;;;;;;12.60;5.00;;;10.70;99.90;;;;;;5031684;28;20034;-59
2022/12/24 14:14:26;;;;;;;9.77;4.72;;;10.60;99.90;;;;;;5032113;28;20041;-59
2022/12/24 14:17:23;;;;;;;9.10;4.65;;;10.60;99.90;;;;;;5032322;28;20025;-58
2022/12/24 14:20:09;;;;;;;11.18;5.35;;;10.60;99.90;;;;;;5031221;28;20036;-56
2022/12/24 14:22:56;;;;;;;11.25;5.43;;;10.70;99.90;;;;;;5031851;28;20524;-58
2022/12/24 14:25:42;;;;;;;15.50;7.32;;;10.70;99.90;;;;;;5031839;28;20406;-56
2022/12/24 14:28:40;;;;;;;13.40;6.22;;;10.80;99.90;;;;;;5032020;28;20378;-58
2022/12/24 14:31:26;;;;;;;12.93;4.53;;;11.00;99.90;;;;;;5031270;28;20056;-59
2022/12/24 14:34:12;;;;;;;12.13;4.63;;;10.90;99.90;;;;;;5031723;28;20493;-60
2022/12/24 14:37:02;;;;;;;12.70;4.82;;;11.00;99.90;;;;;;5031833;28;20030;-55
2022/12/24 14:39:55;;;;;;;10.95;4.82;;;10.80;99.90;;;;;;5031708;28;20032;-55
2022/12/24 14:43:09;;;;;;;12.48;5.43;;;10.80;99.90;;;;;;5031542;28;20113;-59
2022/12/24 14:46:22;;;;;;;11.02;4.78;;;10.80;99.90;;;;;;5031599;28;20025;-61
2022/12/24 14:49:33;;;;;;;10.00;5.10;;;10.60;99.90;;;;;;5031255;28;20026;-59
2022/12/24 14:52:30;;;;;;;10.52;4.80;;;10.60;99.90;;;;;;5025517;28;20037;-61
2022/12/24 14:55:29;;;;;;;9.50;4.68;;;10.70;99.90;;;;;;5031325;28;20024;-58
2022/12/24 14:58:22;;;;;;;15.50;4.97;;;10.70;99.90;;;;;;5031329;28;20022;-57